createdAt,value
2022-09-30T00:01:35.246Z,15.13
2022-09-30T00:04:03.061Z,7.45
2022-09-30T00:06:31.379Z,7.65
2022-09-30T00:08:58.559Z,10.30
2022-09-30T00:11:29.531Z,6.50
2022-09-30T00:13:58.336Z,3.22
2022-09-30T00:16:27.598Z,9.77
2022-09-30T00:19:02.990Z,4.25
2022-09-30T00:21:30.005Z,10.18
2022-09-30T00:23:57.449Z,13.45
2022-09-30T00:26:25.265Z,4.63
2022-09-30T00:28:57.483Z,9.80
2022-09-30T00:31:27.443Z,7.50
2022-09-30T00:34:07.229Z,11.55
2022-09-30T00:36:47.219Z,9.25
2022-09-30T00:39:17.387Z,9.80
2022-09-30T00:41:45.693Z,13.07
2022-09-30T00:44:47.143Z,6.93
2022-09-30T00:47:23.124Z,8.30
2022-09-30T00:49:51.549Z,16.52
2022-09-30T00:52:19.474Z,16.23
2022-09-30T00:54:46.520Z,16.27
2022-09-30T00:57:13.511Z,13.90
2022-09-30T00:59:47.904Z,8.60
2022-09-30T01:02:15.049Z,18.90
2022-09-30T01:04:43.657Z,12.00
2022-09-30T01:07:11.106Z,8.80
2022-09-30T01:09:40.585Z,15.85
2022-09-30T01:12:12.234Z,14.30
2022-09-30T01:14:40.749Z,19.35
2022-09-30T01:17:32.330Z,17.30
2022-09-30T01:20:27.302Z,16.65
2022-09-30T01:23:22.769Z,10.52
2022-09-30T01:26:17.252Z,14.50
2022-09-30T01:29:06.038Z,12.38
2022-09-30T01:31:43.278Z,17.48
2022-09-30T01:34:37.883Z,15.90
2022-09-30T01:37:22.345Z,5.72
2022-09-30T01:39:49.247Z,13.95
2022-09-30T01:42:33.404Z,10.35
2022-09-30T01:45:38.087Z,9.18
2022-09-30T01:48:20.045Z,10.48
2022-09-30T01:50:50.961Z,7.20
2022-09-30T01:53:43.760Z,18.00
2022-09-30T01:56:17.870Z,19.38
2022-09-30T01:58:44.708Z,14.52
2022-09-30T02:01:20.625Z,11.35
2022-09-30T02:03:56.054Z,15.70
2022-09-30T02:06:34.929Z,11.52
2022-09-30T02:09:14.059Z,23.65
2022-09-30T02:11:42.796Z,12.32
2022-09-30T02:14:15.508Z,14.75
2022-09-30T02:16:46.069Z,9.30
2022-09-30T02:19:16.730Z,8.80
2022-09-30T02:21:47.058Z,8.23
2022-09-30T02:24:17.989Z,10.45
2022-09-30T02:26:47.296Z,7.93
2022-09-30T02:29:21.805Z,10.45
2022-09-30T02:31:53.541Z,12.82
2022-09-30T02:34:26.402Z,39.65
2022-09-30T02:36:56.394Z,10.70
2022-09-30T02:39:34.342Z,22.13
2022-09-30T02:42:10.276Z,13.57
2022-09-30T02:44:37.633Z,17.58
2022-09-30T02:47:26.176Z,11.85
2022-09-30T02:50:02.176Z,12.70
2022-09-30T02:53:06.881Z,9.88
2022-09-30T02:56:04.902Z,12.50
2022-09-30T02:58:33.981Z,10.85
2022-09-30T03:01:03.620Z,8.60
2022-09-30T03:03:56.035Z,9.35
2022-09-30T03:06:23.771Z,13.18
2022-09-30T03:08:53.209Z,8.90
2022-09-30T03:11:25.008Z,8.15
2022-09-30T03:14:01.484Z,7.10
2022-09-30T03:16:31.318Z,10.05
2022-09-30T03:19:32.450Z,9.18
2022-09-30T03:22:25.176Z,14.35
2022-09-30T03:24:58.875Z,18.73
2022-09-30T03:27:33.938Z,8.23
2022-09-30T03:30:09.069Z,9.35
2022-09-30T03:32:52.869Z,9.32
2022-09-30T03:35:46.954Z,11.80
2022-09-30T03:38:32.574Z,7.28
2022-09-30T03:41:11.726Z,11.63
2022-09-30T03:43:52.264Z,6.75
2022-09-30T03:46:31.589Z,8.43
2022-09-30T03:49:02.550Z,7.40
2022-09-30T03:51:30.228Z,9.65
2022-09-30T03:53:58.867Z,12.00
2022-09-30T03:56:31.841Z,12.70
2022-09-30T03:58:58.910Z,11.50
2022-09-30T04:01:25.885Z,9.15
2022-09-30T04:03:53.923Z,7.75
2022-09-30T04:06:23.378Z,9.75
2022-09-30T04:08:50.548Z,9.30
2022-09-30T04:11:18.249Z,14.90
2022-09-30T04:13:45.315Z,7.88
2022-09-30T04:16:12.422Z,9.20
2022-09-30T04:18:39.935Z,7.28
2022-09-30T04:21:11.900Z,10.40
2022-09-30T04:23:40.549Z,13.63
2022-09-30T04:26:10.261Z,21.98
2022-09-30T04:28:37.290Z,15.35
2022-09-30T04:31:06.349Z,6.88
2022-09-30T04:33:33.934Z,10.00
2022-09-30T04:36:01.505Z,13.40
2022-09-30T04:38:29.476Z,14.95
2022-09-30T04:40:56.531Z,11.68
2022-09-30T04:43:24.912Z,13.07
2022-09-30T04:45:53.292Z,9.60
2022-09-30T04:48:22.667Z,12.02
2022-09-30T04:50:56.830Z,13.25
2022-09-30T04:53:23.801Z,10.85
2022-09-30T04:55:50.957Z,10.10
2022-09-30T04:58:17.887Z,12.10
2022-09-30T05:00:44.822Z,7.63
2022-09-30T05:03:11.697Z,19.65
2022-09-30T05:05:38.630Z,13.98
2022-09-30T05:08:05.799Z,10.07
2022-09-30T05:10:32.910Z,15.00
2022-09-30T05:12:59.950Z,13.30
2022-09-30T05:15:27.644Z,14.43
2022-09-30T05:17:54.768Z,16.65
2022-09-30T05:20:22.193Z,9.65
2022-09-30T05:22:56.374Z,16.52
2022-09-30T05:25:23.778Z,12.48
2022-09-30T05:27:51.385Z,13.20
2022-09-30T05:30:18.586Z,12.18
2022-09-30T05:32:46.450Z,13.07
2022-09-30T05:35:13.498Z,13.25
2022-09-30T05:37:40.509Z,9.00
2022-09-30T05:40:08.657Z,13.77
2022-09-30T05:42:36.059Z,9.57
2022-09-30T05:45:07.025Z,13.13
2022-09-30T05:47:34.668Z,13.23
2022-09-30T05:50:01.658Z,10.65
2022-09-30T05:52:28.866Z,10.38
2022-09-30T05:54:57.724Z,15.75
2022-09-30T05:57:25.444Z,9.13
2022-09-30T05:59:52.460Z,16.60
2022-09-30T06:02:19.482Z,23.20
2022-09-30T06:04:46.773Z,14.27
2022-09-30T06:07:13.998Z,13.40
2022-09-30T06:09:41.060Z,13.85
2022-09-30T06:12:08.352Z,15.23
2022-09-30T06:14:35.360Z,9.50
2022-09-30T06:17:02.373Z,11.38
2022-09-30T06:19:30.455Z,6.43
2022-09-30T06:21:58.489Z,19.52
2022-09-30T06:24:25.528Z,8.73
2022-09-30T06:26:52.552Z,6.00
2022-09-30T06:29:19.789Z,10.75
2022-09-30T06:31:46.742Z,13.60
2022-09-30T06:34:13.864Z,12.57
2022-09-30T06:36:40.728Z,12.98
2022-09-30T06:39:11.561Z,12.27
2022-09-30T06:41:42.554Z,12.50
2022-09-30T06:44:10.070Z,10.75
2022-09-30T06:46:44.948Z,11.63
2022-09-30T06:49:17.875Z,10.60
2022-09-30T06:51:44.761Z,11.52
2022-09-30T06:54:11.649Z,15.15
2022-09-30T06:56:38.589Z,13.00
2022-09-30T06:59:05.603Z,12.07
2022-09-30T07:01:32.642Z,18.92
2022-09-30T07:03:59.668Z,11.32
2022-09-30T07:06:26.725Z,13.70
2022-09-30T07:08:54.327Z,18.20
2022-09-30T07:11:21.324Z,12.68
2022-09-30T07:13:49.402Z,14.32
2022-09-30T07:16:19.235Z,15.52
2022-09-30T07:18:47.105Z,10.25
2022-09-30T07:21:16.337Z,9.25
2022-09-30T07:23:48.269Z,10.50
2022-09-30T07:26:22.283Z,12.60
2022-09-30T07:28:50.023Z,12.23
2022-09-30T07:31:32.540Z,8.27
2022-09-30T07:34:01.299Z,18.77
2022-09-30T07:36:33.131Z,15.82
2022-09-30T07:39:06.022Z,16.92
2022-09-30T07:41:35.834Z,16.13
2022-09-30T07:44:05.633Z,11.30
2022-09-30T07:46:35.034Z,11.45
2022-09-30T07:49:04.343Z,11.38
2022-09-30T07:51:38.426Z,12.48
2022-09-30T07:54:12.451Z,9.45
2022-09-30T07:59:28.788Z,12.25
2022-09-30T08:01:56.217Z,13.65
2022-09-30T08:04:24.813Z,19.40
2022-09-30T08:06:57.299Z,17.40
2022-09-30T08:09:26.690Z,16.23
2022-09-30T08:11:54.279Z,12.60
2022-09-30T08:14:23.927Z,21.77
2022-09-30T08:16:51.895Z,16.73
2022-09-30T08:19:22.151Z,17.90
2022-09-30T08:21:50.406Z,17.05
2022-09-30T08:24:17.453Z,13.63
2022-09-30T08:26:44.431Z,10.15
2022-09-30T08:29:20.086Z,16.23
2022-09-30T08:31:52.951Z,20.75
2022-09-30T08:34:19.934Z,18.88
2022-09-30T08:36:46.969Z,22.42
2022-09-30T08:39:14.186Z,18.00
2022-09-30T08:41:50.689Z,17.10
2022-09-30T08:44:26.835Z,15.48
2022-09-30T08:47:15.368Z,17.88
2022-09-30T08:50:10.340Z,14.85
2022-09-30T08:52:49.365Z,20.40
2022-09-30T08:55:41.471Z,13.20
2022-09-30T08:58:21.669Z,18.27
2022-09-30T09:00:52.317Z,16.02
2022-09-30T09:03:20.903Z,19.90
2022-09-30T09:06:01.609Z,21.02
2022-09-30T09:08:55.392Z,13.80
2022-09-30T09:11:28.717Z,17.70
2022-09-30T09:14:14.869Z,18.88
2022-09-30T09:16:45.711Z,17.73
2022-09-30T09:19:24.494Z,21.45
2022-09-30T09:22:01.930Z,17.27
2022-09-30T09:24:40.569Z,17.70
2022-09-30T09:27:20.550Z,26.85
2022-09-30T09:30:01.905Z,15.43
2022-09-30T09:32:29.814Z,15.07
2022-09-30T09:35:15.702Z,25.05
2022-09-30T09:38:04.345Z,27.38
2022-09-30T09:40:39.810Z,18.13
2022-09-30T09:43:30.633Z,17.23
2022-09-30T09:46:11.799Z,11.85
2022-09-30T09:48:39.468Z,13.18
2022-09-30T09:51:28.909Z,33.08
2022-09-30T09:54:01.981Z,28.05
2022-09-30T09:56:32.402Z,28.38
2022-09-30T09:59:05.978Z,18.42
2022-09-30T10:01:35.144Z,18.30
2022-09-30T10:04:19.897Z,24.55
2022-09-30T10:06:57.905Z,28.77
2022-09-30T10:09:30.944Z,27.05
2022-09-30T10:12:06.728Z,19.02
2022-09-30T10:14:33.565Z,28.98
2022-09-30T10:17:05.849Z,26.95
2022-09-30T10:19:35.021Z,16.75
2022-09-30T10:22:07.940Z,45.85
2022-09-30T10:24:37.749Z,32.83
2022-09-30T10:27:24.950Z,17.38
2022-09-30T10:29:51.809Z,25.92
2022-09-30T10:32:20.081Z,30.65
2022-09-30T10:34:55.142Z,26.52
2022-09-30T10:37:24.122Z,31.58
2022-09-30T10:40:17.331Z,22.27
2022-09-30T10:42:47.721Z,20.65
2022-09-30T10:45:30.063Z,35.90
2022-09-30T10:47:57.977Z,25.25
2022-09-30T10:50:27.846Z,28.35
2022-09-30T10:53:15.833Z,33.58
2022-09-30T10:55:44.501Z,42.25
2022-09-30T10:58:25.412Z,35.65
2022-09-30T11:01:04.348Z,52.95
2022-09-30T11:04:03.748Z,27.02
2022-09-30T11:06:40.105Z,22.88
2022-09-30T11:11:47.236Z,34.80
2022-09-30T11:14:30.991Z,39.45
2022-09-30T11:17:00.716Z,39.75
2022-09-30T11:19:39.154Z,33.80
2022-09-30T11:22:23.869Z,25.90
2022-09-30T11:24:54.671Z,39.55
2022-09-30T11:27:30.561Z,33.10
2022-09-30T11:30:12.514Z,33.38
2022-09-30T11:32:53.139Z,26.25
2022-09-30T11:35:42.215Z,38.70
2022-09-30T11:38:32.709Z,37.70
2022-09-30T11:41:05.162Z,30.77
2022-09-30T11:43:34.819Z,32.40
2022-09-30T11:46:32.739Z,43.80
2022-09-30T11:49:16.418Z,42.33
2022-09-30T11:52:02.423Z,51.22
2022-09-30T11:54:55.014Z,44.40
2022-09-30T11:57:32.420Z,32.10
2022-09-30T12:00:19.584Z,35.22
2022-09-30T12:02:49.692Z,36.45
2022-09-30T12:05:47.063Z,36.20
2022-09-30T12:11:21.165Z,41.83
2022-09-30T12:14:03.408Z,32.20
2022-09-30T12:16:33.403Z,52.10
2022-09-30T12:19:25.488Z,41.33
2022-09-30T12:22:04.013Z,42.28
2022-09-30T12:24:40.057Z,27.60
2022-09-30T12:27:36.808Z,46.95
2022-09-30T12:30:19.186Z,23.35
2022-09-30T12:32:54.649Z,38.65
2022-09-30T12:35:43.987Z,31.43
2022-09-30T12:38:43.577Z,31.75
2022-09-30T12:41:34.886Z,30.02
2022-09-30T12:44:29.514Z,36.08
2022-09-30T12:47:31.589Z,30.27
2022-09-30T12:50:00.787Z,31.02
2022-09-30T12:52:33.900Z,33.00
2022-09-30T12:55:07.708Z,38.65
2022-09-30T12:57:40.433Z,42.28
2022-09-30T13:00:17.010Z,49.08
2022-09-30T13:02:53.575Z,47.55
2022-09-30T13:05:32.488Z,40.90
2022-09-30T13:08:05.441Z,48.83
2022-09-30T13:10:38.179Z,50.63
2022-09-30T13:13:10.987Z,54.35
2022-09-30T13:15:42.167Z,41.08
2022-09-30T13:18:21.291Z,42.47
2022-09-30T13:21:07.888Z,45.75
2022-09-30T13:23:43.346Z,33.15
2022-09-30T13:26:32.548Z,41.53
2022-09-30T13:29:02.873Z,28.38
2022-09-30T13:31:32.448Z,24.90
2022-09-30T13:34:02.318Z,27.90
2022-09-30T13:36:38.806Z,47.47
2022-09-30T13:39:16.932Z,36.45
2022-09-30T13:41:47.130Z,32.40
2022-09-30T13:44:26.390Z,36.10
2022-09-30T13:46:59.346Z,31.60
2022-09-30T13:49:42.465Z,54.05
2022-09-30T13:52:20.621Z,42.65
2022-09-30T13:54:49.079Z,49.72
2022-09-30T13:57:26.443Z,31.92
2022-09-30T14:00:05.201Z,52.17
2022-09-30T14:02:53.803Z,34.85
2022-09-30T14:05:54.381Z,37.75
2022-09-30T14:08:40.968Z,52.95
2022-09-30T14:11:29.409Z,48.15
2022-09-30T14:14:33.986Z,43.40
2022-09-30T14:17:21.274Z,37.25
2022-09-30T14:20:35.822Z,40.95
2022-09-30T14:23:02.976Z,38.55
2022-09-30T14:25:37.186Z,28.33
2022-09-30T14:28:35.471Z,21.65
2022-09-30T14:31:08.991Z,38.58
2022-09-30T14:33:36.877Z,32.42
2022-09-30T14:36:11.475Z,18.10
2022-09-30T14:38:39.145Z,27.77
2022-09-30T14:41:14.439Z,33.72
2022-09-30T14:43:45.750Z,25.75
2022-09-30T14:46:35.184Z,22.73
2022-09-30T14:49:08.270Z,27.70
2022-09-30T14:51:41.086Z,41.03
2022-09-30T14:54:20.374Z,17.52
2022-09-30T14:56:48.543Z,25.42
2022-09-30T14:59:27.020Z,24.30
2022-09-30T15:02:03.217Z,22.75
2022-09-30T15:04:42.667Z,16.10
2022-09-30T15:07:11.803Z,23.70
2022-09-30T15:09:46.712Z,10.63
2022-09-30T15:12:19.680Z,12.57
2022-09-30T15:14:58.262Z,12.23
2022-09-30T15:17:28.137Z,27.10
2022-09-30T15:19:56.533Z,16.20
2022-09-30T15:22:26.572Z,11.05
2022-09-30T15:24:55.312Z,17.98
2022-09-30T15:27:26.581Z,5.15
2022-09-30T15:29:58.683Z,7.10
2022-09-30T15:32:28.754Z,8.90
2022-09-30T15:35:00.610Z,11.25
2022-09-30T15:37:33.574Z,7.53
2022-09-30T15:40:20.879Z,5.70
2022-09-30T15:43:01.290Z,9.73
2022-09-30T15:45:35.871Z,7.55
2022-09-30T15:48:25.779Z,2.70
2022-09-30T15:51:01.250Z,1.60
2022-09-30T15:53:37.369Z,3.60
2022-09-30T15:56:36.354Z,4.30
2022-09-30T15:59:08.941Z,2.55
2022-09-30T16:01:46.528Z,3.88
2022-09-30T16:04:26.391Z,1.95
2022-09-30T16:06:55.365Z,3.85
2022-09-30T16:09:27.045Z,1.70
2022-09-30T16:12:12.451Z,2.45
2022-09-30T16:14:57.649Z,4.05
2022-09-30T16:17:32.612Z,3.53
2022-09-30T16:20:07.959Z,4.55
2022-09-30T16:22:42.838Z,3.50
2022-09-30T16:25:33.780Z,5.38
2022-09-30T16:28:14.975Z,4.13
2022-09-30T16:30:49.316Z,5.35
2022-09-30T16:33:17.082Z,4.40
2022-09-30T16:35:45.073Z,5.80
2022-09-30T16:38:18.022Z,1.75
2022-09-30T16:40:44.919Z,4.10
2022-09-30T16:43:12.004Z,4.63
2022-09-30T16:45:40.373Z,3.15
2022-09-30T16:48:16.735Z,2.70
2022-09-30T16:53:20.548Z,1.10
2022-09-30T16:55:48.243Z,2.83
2022-09-30T16:58:15.391Z,1.65
2022-09-30T17:00:44.672Z,1.33
2022-09-30T17:03:15.082Z,0.73
2022-09-30T17:05:44.469Z,7.82
2022-09-30T17:08:16.524Z,1.27
2022-09-30T17:10:46.836Z,5.53
2022-09-30T17:13:16.405Z,3.95
2022-09-30T17:15:48.711Z,7.18
2022-09-30T17:18:16.189Z,4.53
2022-09-30T17:20:45.430Z,6.07
2022-09-30T17:23:12.927Z,2.90
2022-09-30T17:25:41.816Z,8.98
2022-09-30T17:28:11.061Z,4.63
2022-09-30T17:30:39.279Z,4.45
2022-09-30T17:33:06.272Z,1.65
2022-09-30T17:35:33.828Z,1.40
2022-09-30T17:38:00.910Z,2.45
2022-09-30T17:40:46.395Z,1.58
2022-09-30T17:43:13.372Z,7.85
2022-09-30T17:45:46.334Z,3.47
2022-09-30T17:48:15.258Z,2.90
2022-09-30T17:50:48.138Z,1.05
2022-09-30T17:53:18.184Z,2.55
2022-09-30T17:55:50.001Z,2.80
2022-09-30T17:58:18.174Z,2.88
2022-09-30T18:00:46.876Z,1.48
2022-09-30T18:03:14.051Z,0.95
2022-09-30T18:05:40.905Z,1.80
2022-09-30T18:08:07.765Z,3.20
2022-09-30T18:10:38.237Z,2.88
2022-09-30T18:13:05.667Z,7.07
2022-09-30T18:15:32.878Z,6.68
2022-09-30T18:17:59.852Z,5.43
2022-09-30T18:20:26.831Z,5.90
2022-09-30T18:22:54.110Z,3.28
2022-09-30T18:25:21.220Z,2.78
2022-09-30T18:27:52.985Z,5.32
2022-09-30T18:30:23.123Z,3.10
2022-09-30T18:32:52.211Z,5.00
2022-09-30T18:35:21.233Z,4.15
2022-09-30T18:37:49.961Z,2.80
2022-09-30T18:40:18.370Z,2.60
2022-09-30T18:42:46.189Z,1.98
2022-09-30T18:45:13.835Z,1.40
2022-09-30T18:47:42.598Z,3.08
2022-09-30T18:50:11.371Z,1.80
2022-09-30T18:52:39.732Z,3.80
2022-09-30T18:55:09.742Z,4.32
2022-09-30T18:57:38.202Z,4.72
2022-09-30T19:00:14.608Z,1.67
2022-09-30T19:02:42.085Z,3.33
2022-09-30T19:05:09.352Z,2.38
2022-09-30T19:07:36.361Z,1.42
2022-09-30T19:10:03.447Z,1.98
2022-09-30T19:12:36.698Z,2.80
2022-09-30T19:15:05.334Z,2.78
2022-09-30T19:17:33.662Z,6.93
2022-09-30T19:20:02.281Z,1.88
2022-09-30T19:22:30.261Z,3.95
2022-09-30T19:24:57.203Z,9.10
2022-09-30T19:27:27.207Z,7.38
2022-09-30T19:29:59.132Z,14.00
2022-09-30T19:32:28.973Z,6.45
2022-09-30T19:35:05.574Z,5.22
2022-09-30T19:37:33.510Z,12.82
2022-09-30T19:40:10.866Z,13.48
2022-09-30T19:42:44.438Z,10.20
2022-09-30T19:45:11.458Z,9.13
2022-09-30T19:47:38.364Z,6.18
2022-09-30T19:50:06.887Z,8.63
2022-09-30T19:52:42.443Z,5.72
2022-09-30T19:55:16.893Z,4.80
2022-09-30T19:57:46.396Z,2.28
2022-09-30T20:00:15.686Z,10.70
2022-09-30T20:02:45.058Z,4.40
2022-09-30T20:05:14.900Z,3.58
2022-09-30T20:07:42.469Z,7.85
2022-09-30T20:10:09.681Z,5.35
2022-09-30T20:12:36.666Z,3.63
2022-09-30T20:15:22.076Z,2.72
2022-09-30T20:17:49.084Z,4.40
2022-09-30T20:20:34.449Z,2.22
2022-09-30T20:23:01.544Z,5.18
2022-09-30T20:25:30.631Z,2.30
2022-09-30T20:27:57.641Z,10.63
2022-09-30T20:30:25.233Z,6.68
2022-09-30T20:32:53.307Z,1.95
2022-09-30T20:35:21.929Z,3.72
2022-09-30T20:37:48.949Z,2.65
2022-09-30T20:40:16.278Z,3.47
2022-09-30T20:42:43.334Z,0.95
2022-09-30T20:45:11.097Z,5.70
2022-09-30T20:47:43.926Z,0.68
2022-09-30T20:50:12.799Z,1.50
2022-09-30T20:52:39.783Z,1.88
2022-09-30T20:55:08.135Z,6.63
2022-09-30T20:57:35.093Z,3.25
2022-09-30T21:00:02.271Z,6.00
2022-09-30T21:02:29.715Z,8.10
2022-09-30T21:04:59.716Z,5.28
2022-09-30T21:07:26.853Z,4.10
2022-09-30T21:09:53.920Z,2.65
2022-09-30T21:12:20.894Z,3.97
2022-09-30T21:14:48.100Z,3.00
2022-09-30T21:17:15.154Z,3.10
2022-09-30T21:19:42.006Z,4.57
2022-09-30T21:22:08.883Z,2.15
2022-09-30T21:24:35.774Z,4.82
2022-09-30T21:27:06.077Z,7.32
2022-09-30T21:29:33.231Z,9.40
2022-09-30T21:32:00.426Z,3.03
2022-09-30T21:34:27.389Z,4.10
2022-09-30T21:36:54.297Z,4.47
2022-09-30T21:39:21.278Z,6.35
2022-09-30T21:41:48.357Z,9.57
2022-09-30T21:44:16.136Z,4.20
2022-09-30T21:46:48.133Z,15.77
2022-09-30T21:49:19.783Z,8.35
2022-09-30T21:51:47.160Z,6.93
2022-09-30T21:54:14.740Z,3.92
2022-09-30T21:56:43.065Z,4.15
2022-09-30T21:59:10.732Z,5.85
2022-09-30T22:01:37.986Z,4.15
2022-09-30T22:04:05.749Z,6.32
2022-09-30T22:06:32.713Z,3.85
2022-09-30T22:09:03.071Z,4.60
2022-09-30T22:11:33.171Z,4.05
2022-09-30T22:14:00.728Z,8.82
2022-09-30T22:16:31.056Z,10.23
2022-09-30T22:19:00.881Z,5.30
2022-09-30T22:21:33.823Z,5.55
2022-09-30T22:24:02.919Z,7.43
2022-09-30T22:26:30.436Z,8.85
2022-09-30T22:29:03.055Z,3.65
2022-09-30T22:31:31.786Z,9.77
2022-09-30T22:34:21.521Z,2.00
2022-09-30T22:37:07.366Z,4.43
2022-09-30T22:39:34.897Z,6.25
2022-09-30T22:42:02.374Z,4.35
2022-09-30T22:44:32.894Z,4.13
2022-09-30T22:47:00.455Z,3.72
2022-09-30T22:49:33.706Z,6.13
2022-09-30T22:52:02.141Z,6.43
2022-09-30T22:54:29.705Z,1.80
2022-09-30T22:56:58.872Z,3.95
2022-09-30T22:59:26.365Z,0.77
2022-09-30T23:01:53.707Z,7.93
2022-09-30T23:04:21.073Z,2.03
2022-09-30T23:06:52.590Z,3.33
2022-09-30T23:09:22.755Z,3.78
2022-09-30T23:11:53.699Z,4.18
2022-09-30T23:14:23.677Z,5.95
2022-09-30T23:16:51.320Z,3.85
2022-09-30T23:19:19.348Z,5.18
2022-09-30T23:21:46.228Z,4.68
2022-09-30T23:24:13.221Z,1.98
2022-09-30T23:26:40.438Z,4.70
2022-09-30T23:29:13.075Z,2.95
2022-09-30T23:31:40.538Z,3.55
2022-09-30T23:34:07.697Z,3.28
2022-09-30T23:36:37.200Z,2.72
2022-09-30T23:39:04.096Z,4.35
2022-09-30T23:41:32.587Z,2.92
2022-09-30T23:44:01.209Z,2.88
2022-09-30T23:46:28.124Z,2.78
2022-09-30T23:48:55.068Z,5.22
2022-09-30T23:51:21.978Z,2.08
2022-09-30T23:53:49.781Z,6.68
2022-09-30T23:56:19.030Z,8.52
2022-09-30T23:58:47.314Z,5.90
